KLRJ

Details ICAO KLRJ
Name LE MARS MUNI
Region United States
Timezone America/Chicago (UTC-5.0)
Plans Departing 2
Arriving 0
Stats Elevation 1,196 ft / 365 m (AMSL)
Location 42.778026° -96.193676°
Runways 1
Magnetic Variation 2.639° E
Sunrise 2018-05-21 10:57:55 UTC / 2018-05-21 05:57:55 Local
Sunset 2018-05-22 01:47:42 UTC / 2018-05-21 20:47:42 Local
Advertisement - Login to hide

Runways

ID Width Length Bearing (true) Bearing (mag) Surface Threshold Offset Overrun Length
18 75 ft / 23 m 3,955 ft / 1,206 m 187.93° 185.29° Concrete 0 ft / 0 m 0 ft / 0 m
36 75 ft / 23 m 3,955 ft / 1,206 m 7.92° 5.28° Concrete 290 ft / 88 m 0 ft / 0 m

Map

Weather


0- 5 10 15 20 25 30 35+ Temperature / ° C

Clouds and Precipitation
Forecast for 2018-05-21 18:00 UTC. Updated 6 hours ago

Ground ~20,000 ft ~40,000 ft Winds

METAR

KLRJ 212315Z AUTO 00000KT 10SM FEW029 FEW037 20/13 A2997 RMK AO2

TAF

Not found

Frequencies

Recorded 125.52 MHz AWOS 3
Approach 124.60 MHz SIOUX CITY APP/DEP
Unicom 122.80 MHz CTAF/UNICOM
Warning: Do not use this data for real-world aviation or navigation. No guarantee of current accuracy is given.